< < Back
Terminal Aerodrome Forecast


Current Version              Previous Versions:   1  2  3  4  5  6  7  8  9  

Terminal Aerodrome Forecast

475
FTUS42 KTAE 162300
TAFTLH
TAF
KTLH 162320Z 1700/1724 29004KT P6SM VCSH SCT035 OVC100
     FM170300 00000KT P6SM SCT100 BKN250
     FM171300 34004KT P6SM SCT250=



Latest METAR

761
SAUS80 KWBC 171500 RRA
MTRTLH
METAR KTLH 171453Z 05004KT 10SM FEW030 SCT250 28/22 A2995 RMK AO2 SLP142
60001 T02830222 50001


USA.gov is the U.S. government's official web portal to all federal, state and local government web resources and services.